createdAt,value
2022-09-06T00:00:57.839Z,46.80
2022-09-06T00:03:27.257Z,46.65
2022-09-06T00:05:54.504Z,47.10
2022-09-06T00:08:21.967Z,46.70
2022-09-06T00:11:00.401Z,46.25
2022-09-06T00:13:28.621Z,46.35
2022-09-06T00:15:57.081Z,46.47
2022-09-06T00:18:24.082Z,46.15
2022-09-06T00:20:50.977Z,46.50
2022-09-06T00:23:17.935Z,46.47
2022-09-06T00:25:45.071Z,46.63
2022-09-06T00:28:11.961Z,46.15
2022-09-06T00:30:38.854Z,46.42
2022-09-06T00:33:07.338Z,46.38
2022-09-06T00:35:34.294Z,46.20
2022-09-06T00:38:01.867Z,46.05
2022-09-06T00:40:32.514Z,46.05
2022-09-06T00:42:59.426Z,46.33
2022-09-06T00:45:28.901Z,46.20
2022-09-06T00:47:58.696Z,46.45
2022-09-06T00:50:28.147Z,46.45
2022-09-06T00:52:55.424Z,46.40
2022-09-06T00:55:22.667Z,46.65
2022-09-06T00:57:51.591Z,46.25
2022-09-06T01:00:20.683Z,46.38
2022-09-06T01:02:49.029Z,46.25
2022-09-06T01:05:17.026Z,46.58
2022-09-06T01:08:04.658Z,46.03
2022-09-06T01:10:58.845Z,46.15
2022-09-06T01:13:35.738Z,46.47
2022-09-06T01:16:12.029Z,46.25
2022-09-06T01:18:55.704Z,46.13
2022-09-06T01:21:40.267Z,46.70
2022-09-06T01:24:42.178Z,46.15
2022-09-06T01:30:02.274Z,45.95
2022-09-06T01:32:34.342Z,46.55
2022-09-06T01:35:07.459Z,46.35
2022-09-06T01:37:34.571Z,46.28
2022-09-06T01:40:01.664Z,46.45
2022-09-06T01:42:31.733Z,45.95
2022-09-06T01:45:01.901Z,46.22
2022-09-06T01:47:38.176Z,45.85
2022-09-06T01:50:24.037Z,46.35
2022-09-06T01:53:02.426Z,46.22
2022-09-06T01:55:35.587Z,45.85
2022-09-06T01:58:18.076Z,46.13
2022-09-06T02:00:55.175Z,45.83
2022-09-06T02:03:30.094Z,46.13
2022-09-06T02:06:03.511Z,46.22
2022-09-06T02:08:34.699Z,45.90
2022-09-06T02:11:04.214Z,46.17
2022-09-06T02:13:35.128Z,46.30
2022-09-06T02:16:06.614Z,46.20
2022-09-06T02:21:04.371Z,45.78
2022-09-06T02:23:35.778Z,45.85
2022-09-06T02:26:07.451Z,45.90
2022-09-06T02:28:34.539Z,45.95
2022-09-06T02:31:07.981Z,46.05
2022-09-06T02:33:35.851Z,46.65
2022-09-06T02:39:10.062Z,46.95
2022-09-06T02:41:38.019Z,45.97
2022-09-06T02:44:04.991Z,46.05
2022-09-06T02:46:33.532Z,46.28
2022-09-06T02:49:00.679Z,45.75
2022-09-06T02:51:27.753Z,45.65
2022-09-06T02:53:54.895Z,45.97
2022-09-06T02:56:21.991Z,45.72
2022-09-06T02:58:52.312Z,45.95
2022-09-06T03:01:19.440Z,45.95
2022-09-06T03:03:47.908Z,45.95
2022-09-06T03:06:14.890Z,45.95
2022-09-06T03:08:41.864Z,45.83
2022-09-06T03:11:09.230Z,45.92
2022-09-06T03:13:36.346Z,46.25
2022-09-06T03:16:03.491Z,46.05
2022-09-06T03:18:31.602Z,45.55
2022-09-06T03:21:00.029Z,45.35
2022-09-06T03:23:28.846Z,45.78
2022-09-06T03:25:56.358Z,45.55
2022-09-06T03:28:23.808Z,45.65
2022-09-06T03:30:52.759Z,45.88
2022-09-06T03:33:20.574Z,45.80
2022-09-06T03:35:49.099Z,45.47
2022-09-06T03:38:17.892Z,45.65
2022-09-06T03:40:46.323Z,45.72
2022-09-06T03:43:13.701Z,45.50
2022-09-06T03:45:44.469Z,45.70
2022-09-06T03:48:11.571Z,45.55
2022-09-06T03:50:38.525Z,45.80
2022-09-06T03:53:05.581Z,45.63
2022-09-06T03:55:33.979Z,45.42
2022-09-06T03:58:00.959Z,45.40
2022-09-06T04:00:28.066Z,45.58
2022-09-06T04:02:58.558Z,45.65
2022-09-06T04:05:28.107Z,45.53
2022-09-06T04:07:55.171Z,45.83
2022-09-06T04:10:22.157Z,45.42
2022-09-06T04:12:50.560Z,45.25
2022-09-06T04:15:17.642Z,45.50
2022-09-06T04:17:47.971Z,45.67
2022-09-06T04:20:15.671Z,45.47
2022-09-06T04:22:42.908Z,45.35
2022-09-06T04:25:12.885Z,45.45
2022-09-06T04:27:39.924Z,45.53
2022-09-06T04:30:09.596Z,45.55
2022-09-06T04:32:36.597Z,45.38
2022-09-06T04:35:04.096Z,45.55
2022-09-06T04:37:31.194Z,45.38
2022-09-06T04:39:58.278Z,45.65
2022-09-06T04:42:25.328Z,45.65
2022-09-06T04:44:52.332Z,45.75
2022-09-06T04:47:21.082Z,45.63
2022-09-06T04:49:50.543Z,46.30
2022-09-06T04:52:17.782Z,45.85
2022-09-06T04:54:45.625Z,45.58
2022-09-06T04:57:12.711Z,45.42
2022-09-06T04:59:39.711Z,45.65
2022-09-06T05:02:06.791Z,45.42
2022-09-06T05:04:35.252Z,45.40
2022-09-06T05:07:03.173Z,45.88
2022-09-06T05:09:30.537Z,45.85
2022-09-06T05:11:57.689Z,45.65
2022-09-06T05:14:24.825Z,45.95
2022-09-06T05:16:51.976Z,45.70
2022-09-06T05:19:19.269Z,45.83
2022-09-06T05:21:47.860Z,45.70
2022-09-06T05:24:14.835Z,45.85
2022-09-06T05:26:41.837Z,45.53
2022-09-06T05:29:08.916Z,46.13
2022-09-06T05:31:36.423Z,45.65
2022-09-06T05:34:03.474Z,45.72
2022-09-06T05:36:31.359Z,45.78
2022-09-06T05:39:00.193Z,45.80
2022-09-06T05:41:27.925Z,46.30
2022-09-06T05:43:55.247Z,46.15
2022-09-06T05:46:22.295Z,45.80
2022-09-06T05:48:53.520Z,46.15
2022-09-06T05:51:20.559Z,45.63
2022-09-06T05:53:47.879Z,45.90
2022-09-06T05:56:17.141Z,45.70
2022-09-06T05:58:44.396Z,46.13
2022-09-06T06:01:17.378Z,45.75
2022-09-06T06:03:51.117Z,46.15
2022-09-06T06:06:18.915Z,46.58
2022-09-06T06:08:46.176Z,46.53
2022-09-06T06:11:13.730Z,46.25
2022-09-06T06:13:43.371Z,47.42
2022-09-06T06:16:11.623Z,48.83
2022-09-06T06:18:39.051Z,48.75
2022-09-06T06:21:14.034Z,49.38
2022-09-06T06:23:42.209Z,59.35
2022-09-06T06:26:10.175Z,50.35
2022-09-06T06:28:37.756Z,49.03
2022-09-06T06:31:07.695Z,52.55
2022-09-06T06:33:36.322Z,49.35
2022-09-06T06:36:05.438Z,50.33
2022-09-06T06:38:33.411Z,50.28
2022-09-06T06:41:05.844Z,51.10
2022-09-06T06:43:38.046Z,49.88
2022-09-06T06:48:35.102Z,50.03
2022-09-06T06:51:02.264Z,52.58
2022-09-06T06:53:29.192Z,52.88
2022-09-06T06:55:56.099Z,54.00
2022-09-06T06:58:23.014Z,48.65
2022-09-06T07:00:49.955Z,48.50
2022-09-06T07:03:18.451Z,48.75
2022-09-06T07:08:37.131Z,48.78
2022-09-06T07:11:04.853Z,48.67
2022-09-06T07:13:31.968Z,48.72
2022-09-06T07:16:10.366Z,48.05
2022-09-06T07:18:42.136Z,48.28
2022-09-06T07:24:05.977Z,48.58
2022-09-06T07:26:34.633Z,49.10
2022-09-06T07:29:03.100Z,48.78
2022-09-06T07:34:20.696Z,49.22
2022-09-06T07:36:48.448Z,49.35
2022-09-06T07:39:15.389Z,48.95
2022-09-06T07:41:43.703Z,49.03
2022-09-06T07:44:10.665Z,49.90
2022-09-06T07:46:38.169Z,49.60
2022-09-06T07:49:06.070Z,49.28
2022-09-06T07:51:34.462Z,49.42
2022-09-06T07:54:31.028Z,49.90
2022-09-06T07:56:49.021Z,49.58
2022-09-06T07:59:16.102Z,49.85
2022-09-06T08:01:43.118Z,49.42
2022-09-06T08:04:15.708Z,51.30
2022-09-06T08:09:33.790Z,50.03
2022-09-06T08:12:06.655Z,50.95
2022-09-06T08:14:33.874Z,50.50
2022-09-06T08:17:00.852Z,50.72
2022-09-06T08:19:28.613Z,50.78
2022-09-06T08:21:57.136Z,51.42
2022-09-06T08:24:24.099Z,50.55
2022-09-06T08:26:51.100Z,50.55
2022-09-06T08:29:21.966Z,51.00
2022-09-06T08:31:49.290Z,51.22
2022-09-06T08:34:16.458Z,51.83
2022-09-06T08:36:45.425Z,50.70
2022-09-06T08:39:13.753Z,50.83
2022-09-06T08:41:48.860Z,50.75
2022-09-06T08:47:08.872Z,51.08
2022-09-06T08:49:38.533Z,51.60
2022-09-06T08:53:06.514Z,51.40
2022-09-06T08:55:44.271Z,51.40
2022-09-06T08:58:26.034Z,51.42
2022-09-06T09:00:58.752Z,52.13
2022-09-06T09:03:31.858Z,51.70
2022-09-06T09:06:00.091Z,51.40
2022-09-06T09:08:32.061Z,52.13
2022-09-06T09:11:03.744Z,51.67
2022-09-06T09:13:35.123Z,52.42
2022-09-06T09:16:02.796Z,52.33
2022-09-06T09:18:33.576Z,52.15
2022-09-06T09:21:00.696Z,51.90
2022-09-06T09:23:29.038Z,52.25
2022-09-06T09:26:02.438Z,52.08
2022-09-06T09:28:29.536Z,52.13
2022-09-06T09:30:57.276Z,51.97
2022-09-06T09:33:28.589Z,52.58
2022-09-06T09:35:57.037Z,51.95
2022-09-06T09:38:27.068Z,52.83
2022-09-06T09:40:55.725Z,52.72
2022-09-06T09:43:25.828Z,52.38
2022-09-06T09:46:11.580Z,52.70
2022-09-06T09:48:39.271Z,53.00
2022-09-06T09:51:27.021Z,52.25
2022-09-06T09:53:55.806Z,52.50
2022-09-06T09:56:28.714Z,52.53
2022-09-06T09:58:59.047Z,52.30
2022-09-06T10:01:29.224Z,52.08
2022-09-06T10:09:37.224Z,52.60
2022-09-06T10:12:04.997Z,53.15
2022-09-06T10:14:41.110Z,53.50
2022-09-06T10:17:08.049Z,53.30
2022-09-06T10:19:39.611Z,53.38
2022-09-06T10:22:21.130Z,53.05
2022-09-06T10:25:12.912Z,53.90
2022-09-06T10:28:10.368Z,53.85
2022-09-06T10:30:46.648Z,53.50
2022-09-06T10:33:25.563Z,53.90
2022-09-06T10:35:53.211Z,53.53
2022-09-06T10:38:36.482Z,53.35
2022-09-06T10:41:23.906Z,53.83
2022-09-06T10:44:00.214Z,54.03
2022-09-06T10:46:33.702Z,53.15
2022-09-06T10:49:00.770Z,53.03
2022-09-06T10:51:36.415Z,54.22
2022-09-06T10:54:08.705Z,52.90
2022-09-06T10:56:43.610Z,53.58
2022-09-06T11:02:16.361Z,53.15
2022-09-06T11:07:37.951Z,53.38
2022-09-06T11:10:13.064Z,53.72
2022-09-06T11:12:48.844Z,54.22
2022-09-06T11:15:18.176Z,53.80
2022-09-06T11:17:53.404Z,53.40
2022-09-06T11:20:32.167Z,53.28
2022-09-06T11:23:23.842Z,52.97
2022-09-06T11:26:36.467Z,53.40
2022-09-06T11:29:06.891Z,53.38
2022-09-06T11:34:38.155Z,52.90
2022-09-06T11:37:07.294Z,52.78
2022-09-06T11:43:03.884Z,52.67
2022-09-06T11:45:43.561Z,52.30
2022-09-06T11:48:34.585Z,52.45
2022-09-06T11:51:06.818Z,52.28
2022-09-06T11:53:55.703Z,52.42
2022-09-06T11:56:31.575Z,51.92
2022-09-06T11:59:05.753Z,52.95
2022-09-06T12:01:38.081Z,52.47
2022-09-06T12:04:10.131Z,52.30
2022-09-06T12:06:41.918Z,52.33
2022-09-06T12:09:29.026Z,52.17
2022-09-06T12:11:56.691Z,52.22
2022-09-06T12:14:31.354Z,52.10
2022-09-06T12:17:19.893Z,52.80
2022-09-06T12:19:48.694Z,52.50
2022-09-06T12:23:01.616Z,53.03
2022-09-06T12:25:58.575Z,51.97
2022-09-06T12:28:31.790Z,52.00
2022-09-06T12:30:59.586Z,53.08
2022-09-06T12:33:31.137Z,52.08
2022-09-06T12:36:13.207Z,51.85
2022-09-06T12:38:40.260Z,51.78
2022-09-06T12:41:08.896Z,52.13
2022-09-06T12:43:39.249Z,52.00
2022-09-06T12:46:07.990Z,51.78
2022-09-06T12:48:39.115Z,52.25
2022-09-06T12:51:08.097Z,51.95
2022-09-06T12:53:35.414Z,51.97
2022-09-06T12:56:05.353Z,52.22
2022-09-06T12:58:33.841Z,51.70
2022-09-06T13:01:08.635Z,51.95
2022-09-06T13:03:40.194Z,52.67
2022-09-06T13:06:08.216Z,51.65
2022-09-06T13:08:42.231Z,52.45
2022-09-06T13:11:13.579Z,52.50
2022-09-06T13:13:48.566Z,52.80
2022-09-06T13:16:20.916Z,52.13
2022-09-06T13:18:48.038Z,52.55
2022-09-06T13:21:25.434Z,52.88
2022-09-06T13:23:52.563Z,53.22
2022-09-06T13:26:33.194Z,53.10
2022-09-06T13:29:11.322Z,52.30
2022-09-06T13:31:38.439Z,52.97
2022-09-06T13:34:05.870Z,53.15
2022-09-06T13:36:33.770Z,53.20
2022-09-06T13:39:03.785Z,53.17
2022-09-06T13:41:41.316Z,52.57
2022-09-06T13:44:21.984Z,52.67
2022-09-06T13:46:53.525Z,53.80
2022-09-06T13:49:20.548Z,52.72
2022-09-06T13:51:47.454Z,52.60
2022-09-06T13:54:15.815Z,53.10
2022-09-06T13:56:44.814Z,53.05
2022-09-06T13:59:12.719Z,53.47
2022-09-06T14:01:44.816Z,53.70
2022-09-06T14:04:14.711Z,53.75
2022-09-06T14:06:41.855Z,53.20
2022-09-06T14:09:09.312Z,54.15
2022-09-06T14:11:37.566Z,53.67
2022-09-06T14:14:05.081Z,55.53
2022-09-06T14:16:33.252Z,54.05
2022-09-06T14:19:01.735Z,53.90
2022-09-06T14:21:28.843Z,53.40
2022-09-06T14:23:58.828Z,54.08
2022-09-06T14:26:28.341Z,53.08
2022-09-06T14:28:55.596Z,53.63
2022-09-06T14:31:26.185Z,53.45
2022-09-06T14:33:53.882Z,53.97
2022-09-06T14:36:24.883Z,54.20
2022-09-06T14:38:52.705Z,53.58
2022-09-06T14:41:20.245Z,53.58
2022-09-06T14:43:49.978Z,53.33
2022-09-06T14:46:18.346Z,54.22
2022-09-06T14:48:46.004Z,53.20
2022-09-06T14:51:17.974Z,54.03
2022-09-06T14:53:46.631Z,54.03
2022-09-06T14:56:13.843Z,54.00
2022-09-06T14:58:41.800Z,53.85
2022-09-06T15:01:13.057Z,54.00
2022-09-06T15:03:41.274Z,53.20
2022-09-06T15:06:09.408Z,53.00
2022-09-06T15:08:36.725Z,53.28
2022-09-06T15:11:08.233Z,53.90
2022-09-06T15:13:36.476Z,53.58
2022-09-06T15:16:03.566Z,53.88
2022-09-06T15:18:30.861Z,53.38
2022-09-06T15:20:57.763Z,53.70
2022-09-06T15:23:27.133Z,53.10
2022-09-06T15:25:54.292Z,53.45
2022-09-06T15:28:22.707Z,53.63
2022-09-06T15:30:49.919Z,53.67
2022-09-06T15:33:17.035Z,53.72
2022-09-06T15:35:44.534Z,52.58
2022-09-06T15:38:12.443Z,53.70
2022-09-06T15:40:39.477Z,53.42
2022-09-06T15:43:06.677Z,53.03
2022-09-06T15:45:47.454Z,52.75
2022-09-06T15:48:15.983Z,53.65
2022-09-06T15:50:51.338Z,53.22
2022-09-06T15:53:18.924Z,52.90
2022-09-06T15:55:58.026Z,52.88
2022-09-06T15:58:25.479Z,52.67
2022-09-06T16:01:08.883Z,53.28
2022-09-06T16:03:37.645Z,53.28
2022-09-06T16:08:55.382Z,53.35
2022-09-06T16:11:22.399Z,52.90
2022-09-06T16:13:49.545Z,53.33
2022-09-06T16:16:18.120Z,53.17
2022-09-06T16:18:47.351Z,52.30
2022-09-06T16:21:16.659Z,52.22
2022-09-06T16:23:48.448Z,52.45
2022-09-06T16:26:20.591Z,52.65
2022-09-06T16:28:50.026Z,52.42
2022-09-06T16:31:19.673Z,52.45
2022-09-06T16:33:48.784Z,53.25
2022-09-06T16:36:16.774Z,52.05
2022-09-06T16:38:44.157Z,52.10
2022-09-06T16:41:14.462Z,52.20
2022-09-06T16:43:41.957Z,52.85
2022-09-06T16:46:09.962Z,52.70
2022-09-06T16:48:40.702Z,51.92
2022-09-06T16:51:13.357Z,52.30
2022-09-06T16:53:41.843Z,52.72
2022-09-06T16:56:09.507Z,52.40
2022-09-06T16:58:36.663Z,52.58
2022-09-06T17:01:03.621Z,53.20
2022-09-06T17:03:30.852Z,52.67
2022-09-06T17:05:59.197Z,53.30
2022-09-06T17:08:26.369Z,52.80
2022-09-06T17:10:53.643Z,52.38
2022-09-06T17:13:20.615Z,52.55
2022-09-06T17:16:13.682Z,52.70
2022-09-06T17:18:40.924Z,52.70
2022-09-06T17:21:09.313Z,52.63
2022-09-06T17:23:37.343Z,52.88
2022-09-06T17:26:04.948Z,52.65
2022-09-06T17:28:33.635Z,53.03
2022-09-06T17:31:02.156Z,52.88
2022-09-06T17:33:30.414Z,52.33
2022-09-06T17:36:06.141Z,52.40
2022-09-06T17:38:35.150Z,52.20
2022-09-06T17:41:02.479Z,52.88
2022-09-06T17:43:29.554Z,52.75
2022-09-06T17:45:56.652Z,53.13
2022-09-06T17:48:25.051Z,52.85
2022-09-06T17:50:53.779Z,52.30
2022-09-06T17:53:20.747Z,52.55
2022-09-06T17:55:52.122Z,53.47
2022-09-06T17:58:19.974Z,52.30
2022-09-06T18:00:47.041Z,52.03
2022-09-06T18:03:14.599Z,51.92
2022-09-06T18:05:41.829Z,52.92
2022-09-06T18:08:09.375Z,52.17
2022-09-06T18:10:37.477Z,52.55
2022-09-06T18:13:06.466Z,52.38
2022-09-06T18:15:38.529Z,51.65
2022-09-06T18:18:05.801Z,51.78
2022-09-06T18:20:32.832Z,51.22
2022-09-06T18:23:00.395Z,51.35
2022-09-06T18:25:28.595Z,50.75
2022-09-06T18:27:55.630Z,50.67
2022-09-06T18:30:24.007Z,50.92
2022-09-06T18:32:51.170Z,50.47
2022-09-06T18:35:18.176Z,50.40
2022-09-06T18:37:45.244Z,50.25
2022-09-06T18:40:12.272Z,50.63
2022-09-06T18:42:43.112Z,50.55
2022-09-06T18:45:11.165Z,50.15
2022-09-06T18:47:39.850Z,50.05
2022-09-06T18:50:08.132Z,50.08
2022-09-06T18:52:35.395Z,50.25
2022-09-06T18:55:02.394Z,50.28
2022-09-06T18:57:30.703Z,50.20
2022-09-06T18:59:58.164Z,49.85
2022-09-06T19:02:26.355Z,49.92
2022-09-06T19:04:56.092Z,50.15
2022-09-06T19:07:23.211Z,49.85
2022-09-06T19:09:53.373Z,49.50
2022-09-06T19:12:20.396Z,49.92
2022-09-06T19:14:50.337Z,50.00
2022-09-06T19:17:17.362Z,49.42
2022-09-06T19:19:44.361Z,49.15
2022-09-06T19:22:12.881Z,48.58
2022-09-06T19:24:40.463Z,48.72
2022-09-06T19:27:08.147Z,48.92
2022-09-06T19:29:35.116Z,49.10
2022-09-06T19:32:02.831Z,48.85
2022-09-06T19:34:30.209Z,49.63
2022-09-06T19:36:57.298Z,49.65
2022-09-06T19:39:34.785Z,50.08
2022-09-06T19:42:04.469Z,50.35
2022-09-06T19:44:32.617Z,50.28
2022-09-06T19:47:00.254Z,49.78
2022-09-06T19:49:27.297Z,49.70
2022-09-06T19:51:54.238Z,49.38
2022-09-06T19:54:21.181Z,49.15
2022-09-06T19:56:49.475Z,49.97
2022-09-06T19:59:16.522Z,49.25
2022-09-06T20:01:45.398Z,49.75
2022-09-06T20:04:13.851Z,49.30
2022-09-06T20:06:41.085Z,49.40
2022-09-06T20:09:10.445Z,49.35
2022-09-06T20:11:38.631Z,49.35
2022-09-06T20:14:07.055Z,49.00
2022-09-06T20:16:38.163Z,49.47
2022-09-06T20:19:07.820Z,49.35
2022-09-06T20:21:34.747Z,48.83
2022-09-06T20:24:02.120Z,49.53
2022-09-06T20:26:30.440Z,49.88
2022-09-06T20:28:59.163Z,49.38
2022-09-06T20:31:28.960Z,49.75
2022-09-06T20:33:56.759Z,48.92
2022-09-06T20:36:23.796Z,49.42
2022-09-06T20:38:50.864Z,49.47
2022-09-06T20:41:19.454Z,49.35
2022-09-06T20:43:50.878Z,49.17
2022-09-06T20:46:19.258Z,49.10
2022-09-06T20:48:48.046Z,49.35
2022-09-06T20:51:18.943Z,48.92
2022-09-06T20:56:15.575Z,49.15
2022-09-06T20:58:42.967Z,49.10
2022-09-06T21:01:11.980Z,49.17
2022-09-06T21:03:41.126Z,49.55
2022-09-06T21:06:11.010Z,49.35
2022-09-06T21:08:42.594Z,49.72
2022-09-06T21:11:10.276Z,49.35
2022-09-06T21:13:37.997Z,49.97
2022-09-06T21:16:05.740Z,49.35
2022-09-06T21:18:34.036Z,49.13
2022-09-06T21:21:02.659Z,49.45
2022-09-06T21:23:33.322Z,49.38
2022-09-06T21:26:02.029Z,49.58
2022-09-06T21:28:30.532Z,49.63
2022-09-06T21:31:02.301Z,48.83
2022-09-06T21:33:30.078Z,49.22
2022-09-06T21:36:03.652Z,49.30
2022-09-06T21:38:32.460Z,48.95
2022-09-06T21:40:59.678Z,49.30
2022-09-06T21:43:26.844Z,49.00
2022-09-06T21:45:53.809Z,48.83
2022-09-06T21:48:20.877Z,49.75
2022-09-06T21:50:47.922Z,49.65
2022-09-06T21:53:15.485Z,49.08
2022-09-06T21:55:45.098Z,49.55
2022-09-06T21:58:13.204Z,49.22
2022-09-06T22:00:41.438Z,49.30
2022-09-06T22:03:09.331Z,49.30
2022-09-06T22:05:36.295Z,48.83
2022-09-06T22:08:03.643Z,49.22
2022-09-06T22:10:30.618Z,49.38
2022-09-06T22:12:58.948Z,49.13
2022-09-06T22:15:25.924Z,49.15
2022-09-06T22:17:52.952Z,49.33
2022-09-06T22:20:21.168Z,48.65
2022-09-06T22:22:48.546Z,50.58
2022-09-06T22:25:15.890Z,52.75
2022-09-06T22:27:42.900Z,55.67
2022-09-06T22:30:12.590Z,52.25
2022-09-06T22:32:40.050Z,50.65
2022-09-06T22:35:07.852Z,50.75
2022-09-06T22:37:35.031Z,50.58
2022-09-06T22:40:02.531Z,50.25
2022-09-06T22:42:29.982Z,51.17
2022-09-06T22:45:00.111Z,51.30
2022-09-06T22:47:28.453Z,75.50
2022-09-06T22:49:55.428Z,147.13
2022-09-06T22:52:22.552Z,134.45
2022-09-06T23:00:14.235Z,56.15
2022-09-06T23:02:42.823Z,57.05
2022-09-06T23:05:09.843Z,54.15
2022-09-06T23:07:36.899Z,54.42
2022-09-06T23:10:04.879Z,54.85
2022-09-06T23:12:31.868Z,53.15
2022-09-06T23:14:59.030Z,52.75
2022-09-06T23:17:26.059Z,52.03
2022-09-06T23:19:54.619Z,50.45
2022-09-06T23:22:21.613Z,51.72
2022-09-06T23:24:48.724Z,50.72
2022-09-06T23:27:15.830Z,52.00
2022-09-06T23:29:43.960Z,51.90
2022-09-06T23:32:11.120Z,50.88
2022-09-06T23:34:38.229Z,50.70
2022-09-06T23:37:07.071Z,52.08
2022-09-06T23:39:34.136Z,50.60
2022-09-06T23:42:02.443Z,49.88
2022-09-06T23:44:29.526Z,50.45
2022-09-06T23:46:56.523Z,48.85
2022-09-06T23:49:23.619Z,49.63
2022-09-06T23:51:50.749Z,49.17
2022-09-06T23:54:19.090Z,48.25
2022-09-06T23:56:46.371Z,48.63
2022-09-06T23:59:13.439Z,48.05
